sensor_id;sensor_type;location;lat;lon;timestamp;P1;durP1;ratioP1;P2;durP2;ratioP2
3207;SDS011;1616;52.394;9.756;2022-08-03T00:01:57;2.83;;;2.17;;
3207;SDS011;1616;52.394;9.756;2022-08-03T00:04:23;3.10;;;2.33;;
3207;SDS011;1616;52.394;9.756;2022-08-03T00:06:49;2.87;;;2.67;;
3207;SDS011;1616;52.394;9.756;2022-08-03T00:09:15;5.50;;;2.30;;
3207;SDS011;1616;52.394;9.756;2022-08-03T00:11:41;2.63;;;2.33;;
3207;SDS011;1616;52.394;9.756;2022-08-03T00:14:07;2.30;;;2.10;;
3207;SDS011;1616;52.394;9.756;2022-08-03T00:16:33;2.50;;;2.30;;
3207;SDS011;1616;52.394;9.756;2022-08-03T00:18:59;2.40;;;2.20;;
3207;SDS011;1616;52.394;9.756;2022-08-03T00:21:25;7.80;;;3.20;;
3207;SDS011;1616;52.394;9.756;2022-08-03T00:23:51;3.10;;;2.13;;
3207;SDS011;1616;52.394;9.756;2022-08-03T00:26:17;2.47;;;2.27;;
3207;SDS011;1616;52.394;9.756;2022-08-03T00:28:43;2.60;;;2.40;;
3207;SDS011;1616;52.394;9.756;2022-08-03T00:31:08;2.40;;;2.20;;
3207;SDS011;1616;52.394;9.756;2022-08-03T00:33:34;2.80;;;2.30;;
3207;SDS011;1616;52.394;9.756;2022-08-03T00:36:00;2.53;;;2.27;;
3207;SDS011;1616;52.394;9.756;2022-08-03T00:38:25;3.13;;;2.83;;
3207;SDS011;1616;52.394;9.756;2022-08-03T00:40:51;3.10;;;2.57;;
3207;SDS011;1616;52.394;9.756;2022-08-03T00:43:16;2.50;;;2.30;;
3207;SDS011;1616;52.394;9.756;2022-08-03T00:45:42;3.00;;;2.70;;
3207;SDS011;1616;52.394;9.756;2022-08-03T00:48:09;2.60;;;2.50;;
3207;SDS011;1616;52.394;9.756;2022-08-03T00:50:39;10.77;;;2.00;;
3207;SDS011;1616;52.394;9.756;2022-08-03T00:53:08;4.17;;;2.40;;
3207;SDS011;1616;52.394;9.756;2022-08-03T00:55:36;2.80;;;2.60;;
3207;SDS011;1616;52.394;9.756;2022-08-03T00:58:02;2.30;;;2.20;;
3207;SDS011;1616;52.394;9.756;2022-08-03T01:00:31;2.83;;;2.73;;
3207;SDS011;1616;52.394;9.756;2022-08-03T01:02:59;5.00;;;2.23;;
3207;SDS011;1616;52.394;9.756;2022-08-03T01:05:27;2.77;;;2.67;;
3207;SDS011;1616;52.394;9.756;2022-08-03T01:08:08;4.70;;;4.10;;
3207;SDS011;1616;52.394;9.756;2022-08-03T01:10:52;2.83;;;2.63;;
3207;SDS011;1616;52.394;9.756;2022-08-03T01:13:40;2.47;;;2.37;;
3207;SDS011;1616;52.394;9.756;2022-08-03T01:16:12;4.00;;;2.90;;
3207;SDS011;1616;52.394;9.756;2022-08-03T01:18:50;3.30;;;2.27;;
3207;SDS011;1616;52.394;9.756;2022-08-03T01:21:39;4.43;;;3.10;;
3207;SDS011;1616;52.394;9.756;2022-08-03T01:24:33;3.60;;;2.77;;
3207;SDS011;1616;52.394;9.756;2022-08-03T01:27:18;3.30;;;3.00;;
3207;SDS011;1616;52.394;9.756;2022-08-03T01:35:20;2.70;;;2.50;;
3207;SDS011;1616;52.394;9.756;2022-08-03T01:38:14;3.73;;;3.00;;
3207;SDS011;1616;52.394;9.756;2022-08-03T01:40:46;4.10;;;2.90;;
3207;SDS011;1616;52.394;9.756;2022-08-03T01:43:17;2.90;;;2.70;;
3207;SDS011;1616;52.394;9.756;2022-08-03T01:45:44;3.00;;;2.80;;
3207;SDS011;1616;52.394;9.756;2022-08-03T01:48:11;2.83;;;2.63;;
3207;SDS011;1616;52.394;9.756;2022-08-03T01:50:40;2.97;;;2.67;;
3207;SDS011;1616;52.394;9.756;2022-08-03T01:53:07;4.30;;;2.57;;
3207;SDS011;1616;52.394;9.756;2022-08-03T01:55:34;2.80;;;2.60;;
3207;SDS011;1616;52.394;9.756;2022-08-03T01:58:02;5.13;;;2.50;;
3207;SDS011;1616;52.394;9.756;2022-08-03T02:00:29;2.60;;;2.50;;
3207;SDS011;1616;52.394;9.756;2022-08-03T02:02:57;2.47;;;2.33;;
3207;SDS011;1616;52.394;9.756;2022-08-03T02:05:23;3.20;;;3.00;;
3207;SDS011;1616;52.394;9.756;2022-08-03T02:07:50;2.80;;;2.60;;
3207;SDS011;1616;52.394;9.756;2022-08-03T02:10:18;2.77;;;2.60;;
3207;SDS011;1616;52.394;9.756;2022-08-03T02:12:45;2.67;;;2.57;;
3207;SDS011;1616;52.394;9.756;2022-08-03T02:15:16;2.83;;;2.63;;
3207;SDS011;1616;52.394;9.756;2022-08-03T02:17:43;2.97;;;2.77;;
3207;SDS011;1616;52.394;9.756;2022-08-03T02:20:11;2.73;;;2.50;;
3207;SDS011;1616;52.394;9.756;2022-08-03T02:22:39;6.50;;;3.00;;
3207;SDS011;1616;52.394;9.756;2022-08-03T02:25:06;2.57;;;2.47;;
3207;SDS011;1616;52.394;9.756;2022-08-03T02:27:33;3.97;;;2.50;;
3207;SDS011;1616;52.394;9.756;2022-08-03T02:30:04;2.80;;;2.60;;
3207;SDS011;1616;52.394;9.756;2022-08-03T02:32:36;4.17;;;2.87;;
3207;SDS011;1616;52.394;9.756;2022-08-03T02:35:05;2.97;;;2.77;;
3207;SDS011;1616;52.394;9.756;2022-08-03T02:37:37;2.73;;;2.53;;
3207;SDS011;1616;52.394;9.756;2022-08-03T02:40:06;2.80;;;2.60;;
3207;SDS011;1616;52.394;9.756;2022-08-03T02:42:34;2.47;;;2.37;;
3207;SDS011;1616;52.394;9.756;2022-08-03T02:45:02;2.23;;;2.13;;
3207;SDS011;1616;52.394;9.756;2022-08-03T02:47:30;3.43;;;2.97;;
3207;SDS011;1616;52.394;9.756;2022-08-03T02:49:59;4.23;;;2.77;;
3207;SDS011;1616;52.394;9.756;2022-08-03T02:52:27;4.10;;;2.67;;
3207;SDS011;1616;52.394;9.756;2022-08-03T02:54:58;2.60;;;2.50;;
3207;SDS011;1616;52.394;9.756;2022-08-03T02:57:27;3.10;;;2.90;;
3207;SDS011;1616;52.394;9.756;2022-08-03T02:59:55;3.37;;;3.17;;
3207;SDS011;1616;52.394;9.756;2022-08-03T03:02:22;3.17;;;2.53;;
3207;SDS011;1616;52.394;9.756;2022-08-03T03:04:49;2.63;;;2.47;;
3207;SDS011;1616;52.394;9.756;2022-08-03T03:07:16;2.57;;;2.37;;
3207;SDS011;1616;52.394;9.756;2022-08-03T03:09:42;2.60;;;2.40;;
3207;SDS011;1616;52.394;9.756;2022-08-03T03:12:09;2.80;;;2.57;;
3207;SDS011;1616;52.394;9.756;2022-08-03T03:14:37;2.60;;;2.50;;
3207;SDS011;1616;52.394;9.756;2022-08-03T03:17:05;3.00;;;2.80;;
3207;SDS011;1616;52.394;9.756;2022-08-03T03:19:32;6.53;;;3.20;;
3207;SDS011;1616;52.394;9.756;2022-08-03T03:22:01;2.50;;;2.30;;
3207;SDS011;1616;52.394;9.756;2022-08-03T03:24:31;3.00;;;2.80;;
3207;SDS011;1616;52.394;9.756;2022-08-03T03:26:58;2.37;;;2.27;;
3207;SDS011;1616;52.394;9.756;2022-08-03T03:29:25;3.37;;;3.07;;
3207;SDS011;1616;52.394;9.756;2022-08-03T03:31:51;3.07;;;2.87;;
3207;SDS011;1616;52.394;9.756;2022-08-03T03:34:17;2.33;;;2.23;;
3207;SDS011;1616;52.394;9.756;2022-08-03T03:36:43;3.23;;;2.73;;
3207;SDS011;1616;52.394;9.756;2022-08-03T03:39:09;3.70;;;2.80;;
3207;SDS011;1616;52.394;9.756;2022-08-03T03:41:36;3.10;;;2.87;;
3207;SDS011;1616;52.394;9.756;2022-08-03T03:44:03;2.50;;;2.40;;
3207;SDS011;1616;52.394;9.756;2022-08-03T03:46:29;3.60;;;2.80;;
3207;SDS011;1616;52.394;9.756;2022-08-03T03:48:56;2.40;;;2.30;;
3207;SDS011;1616;52.394;9.756;2022-08-03T03:51:22;2.73;;;2.47;;
3207;SDS011;1616;52.394;9.756;2022-08-03T03:53:56;2.53;;;2.43;;
3207;SDS011;1616;52.394;9.756;2022-08-03T03:56:24;3.40;;;2.83;;
3207;SDS011;1616;52.394;9.756;2022-08-03T03:58:50;2.83;;;2.50;;
3207;SDS011;1616;52.394;9.756;2022-08-03T04:01:17;2.40;;;2.20;;
3207;SDS011;1616;52.394;9.756;2022-08-03T04:03:43;2.47;;;2.37;;
3207;SDS011;1616;52.394;9.756;2022-08-03T04:06:09;5.70;;;2.20;;
3207;SDS011;1616;52.394;9.756;2022-08-03T04:08:55;6.70;;;2.20;;
3207;SDS011;1616;52.394;9.756;2022-08-03T04:11:52;3.57;;;2.23;;
3207;SDS011;1616;52.394;9.756;2022-08-03T04:14:23;2.43;;;2.23;;
3207;SDS011;1616;52.394;9.756;2022-08-03T04:16:59;2.23;;;2.03;;
3207;SDS011;1616;52.394;9.756;2022-08-03T04:22:05;2.07;;;1.97;;
3207;SDS011;1616;52.394;9.756;2022-08-03T04:24:41;2.00;;;1.90;;
3207;SDS011;1616;52.394;9.756;2022-08-03T04:27:11;1.80;;;1.70;;
3207;SDS011;1616;52.394;9.756;2022-08-03T04:29:41;3.53;;;2.70;;
3207;SDS011;1616;52.394;9.756;2022-08-03T04:32:09;4.53;;;1.93;;
3207;SDS011;1616;52.394;9.756;2022-08-03T04:34:36;3.00;;;1.70;;
3207;SDS011;1616;52.394;9.756;2022-08-03T04:37:04;1.90;;;1.80;;
3207;SDS011;1616;52.394;9.756;2022-08-03T04:39:34;2.13;;;1.93;;
3207;SDS011;1616;52.394;9.756;2022-08-03T04:42:03;2.07;;;1.70;;
3207;SDS011;1616;52.394;9.756;2022-08-03T04:44:33;1.80;;;1.70;;
3207;SDS011;1616;52.394;9.756;2022-08-03T04:47:01;2.23;;;1.60;;
3207;SDS011;1616;52.394;9.756;2022-08-03T04:49:28;1.80;;;1.70;;
3207;SDS011;1616;52.394;9.756;2022-08-03T04:51:54;1.70;;;1.60;;
3207;SDS011;1616;52.394;9.756;2022-08-03T04:54:20;5.77;;;1.77;;
3207;SDS011;1616;52.394;9.756;2022-08-03T04:56:46;1.77;;;1.67;;
3207;SDS011;1616;52.394;9.756;2022-08-03T04:59:12;3.63;;;1.70;;
3207;SDS011;1616;52.394;9.756;2022-08-03T05:01:38;2.43;;;1.70;;
3207;SDS011;1616;52.394;9.756;2022-08-03T05:04:06;3.93;;;1.40;;
3207;SDS011;1616;52.394;9.756;2022-08-03T05:06:32;3.40;;;1.53;;
3207;SDS011;1616;52.394;9.756;2022-08-03T05:08:58;2.17;;;1.97;;
3207;SDS011;1616;52.394;9.756;2022-08-03T05:11:23;1.47;;;1.33;;
3207;SDS011;1616;52.394;9.756;2022-08-03T05:13:49;2.67;;;1.60;;
3207;SDS011;1616;52.394;9.756;2022-08-03T05:16:14;2.80;;;1.50;;
3207;SDS011;1616;52.394;9.756;2022-08-03T05:18:40;4.10;;;1.57;;
3207;SDS011;1616;52.394;9.756;2022-08-03T05:21:07;3.70;;;1.30;;
3207;SDS011;1616;52.394;9.756;2022-08-03T05:23:34;1.60;;;1.50;;
3207;SDS011;1616;52.394;9.756;2022-08-03T05:26:00;2.10;;;1.70;;
3207;SDS011;1616;52.394;9.756;2022-08-03T05:28:26;1.50;;;1.40;;
3207;SDS011;1616;52.394;9.756;2022-08-03T05:30:51;1.33;;;1.23;;
3207;SDS011;1616;52.394;9.756;2022-08-03T05:33:17;1.60;;;1.50;;
3207;SDS011;1616;52.394;9.756;2022-08-03T05:35:43;1.57;;;1.40;;
3207;SDS011;1616;52.394;9.756;2022-08-03T05:38:09;2.73;;;1.50;;
3207;SDS011;1616;52.394;9.756;2022-08-03T05:40:34;2.23;;;1.23;;
3207;SDS011;1616;52.394;9.756;2022-08-03T05:43:00;2.20;;;1.37;;
3207;SDS011;1616;52.394;9.756;2022-08-03T05:45:26;2.13;;;1.30;;
3207;SDS011;1616;52.394;9.756;2022-08-03T05:47:51;12.13;;;2.40;;
3207;SDS011;1616;52.394;9.756;2022-08-03T05:50:18;3.43;;;1.50;;
3207;SDS011;1616;52.394;9.756;2022-08-03T05:52:44;2.57;;;1.30;;
3207;SDS011;1616;52.394;9.756;2022-08-03T05:55:10;5.57;;;1.50;;
3207;SDS011;1616;52.394;9.756;2022-08-03T05:57:37;7.80;;;1.30;;
3207;SDS011;1616;52.394;9.756;2022-08-03T06:00:08;1.27;;;1.17;;
3207;SDS011;1616;52.394;9.756;2022-08-03T06:02:35;6.13;;;3.70;;
3207;SDS011;1616;52.394;9.756;2022-08-03T06:05:01;2.10;;;1.20;;
3207;SDS011;1616;52.394;9.756;2022-08-03T06:07:27;1.40;;;1.30;;
3207;SDS011;1616;52.394;9.756;2022-08-03T06:09:53;1.80;;;1.60;;
3207;SDS011;1616;52.394;9.756;2022-08-03T06:12:19;1.40;;;1.30;;
3207;SDS011;1616;52.394;9.756;2022-08-03T06:14:45;1.40;;;1.30;;
3207;SDS011;1616;52.394;9.756;2022-08-03T06:17:11;3.67;;;1.30;;
3207;SDS011;1616;52.394;9.756;2022-08-03T06:19:37;1.20;;;1.10;;
3207;SDS011;1616;52.394;9.756;2022-08-03T06:22:03;3.53;;;1.30;;
3207;SDS011;1616;52.394;9.756;2022-08-03T06:24:29;1.53;;;1.33;;
3207;SDS011;1616;52.394;9.756;2022-08-03T06:26:55;1.47;;;1.37;;
3207;SDS011;1616;52.394;9.756;2022-08-03T06:29:21;3.50;;;1.60;;
3207;SDS011;1616;52.394;9.756;2022-08-03T06:31:47;2.63;;;1.33;;
3207;SDS011;1616;52.394;9.756;2022-08-03T06:34:12;1.20;;;1.10;;
3207;SDS011;1616;52.394;9.756;2022-08-03T06:36:38;1.33;;;1.20;;
3207;SDS011;1616;52.394;9.756;2022-08-03T06:39:03;3.25;;;1.25;;
3207;SDS011;1616;52.394;9.756;2022-08-03T06:41:29;1.40;;;1.30;;
3207;SDS011;1616;52.394;9.756;2022-08-03T06:43:55;1.98;;;1.17;;
3207;SDS011;1616;52.394;9.756;2022-08-03T06:46:21;1.98;;;1.20;;
3207;SDS011;1616;52.394;9.756;2022-08-03T06:48:47;4.95;;;1.25;;
3207;SDS011;1616;52.394;9.756;2022-08-03T06:51:13;2.33;;;1.00;;
3207;SDS011;1616;52.394;9.756;2022-08-03T06:53:38;1.20;;;1.10;;
3207;SDS011;1616;52.394;9.756;2022-08-03T06:56:04;5.82;;;1.50;;
3207;SDS011;1616;52.394;9.756;2022-08-03T06:58:31;1.00;;;0.90;;
3207;SDS011;1616;52.394;9.756;2022-08-03T07:00:57;1.80;;;1.13;;
3207;SDS011;1616;52.394;9.756;2022-08-03T07:03:22;4.20;;;1.20;;
3207;SDS011;1616;52.394;9.756;2022-08-03T07:05:48;5.00;;;1.20;;
3207;SDS011;1616;52.394;9.756;2022-08-03T07:08:15;1.20;;;1.10;;
3207;SDS011;1616;52.394;9.756;2022-08-03T07:10:42;2.05;;;1.23;;
3207;SDS011;1616;52.394;9.756;2022-08-03T07:13:09;1.55;;;1.30;;
3207;SDS011;1616;52.394;9.756;2022-08-03T07:15:35;1.20;;;1.10;;
3207;SDS011;1616;52.394;9.756;2022-08-03T07:18:00;2.25;;;1.20;;
3207;SDS011;1616;52.394;9.756;2022-08-03T07:20:26;1.67;;;1.30;;
3207;SDS011;1616;52.394;9.756;2022-08-03T07:22:52;3.97;;;1.20;;
3207;SDS011;1616;52.394;9.756;2022-08-03T07:25:18;1.40;;;1.30;;
3207;SDS011;1616;52.394;9.756;2022-08-03T07:27:44;1.20;;;1.10;;
3207;SDS011;1616;52.394;9.756;2022-08-03T07:30:11;3.38;;;1.00;;
3207;SDS011;1616;52.394;9.756;2022-08-03T07:32:38;2.65;;;1.10;;
3207;SDS011;1616;52.394;9.756;2022-08-03T07:35:05;2.53;;;1.10;;
3207;SDS011;1616;52.394;9.756;2022-08-03T07:37:32;3.70;;;1.20;;
3207;SDS011;1616;52.394;9.756;2022-08-03T07:39:58;2.40;;;1.35;;
3207;SDS011;1616;52.394;9.756;2022-08-03T07:42:25;2.95;;;1.20;;
3207;SDS011;1616;52.394;9.756;2022-08-03T07:44:54;1.15;;;0.80;;
3207;SDS011;1616;52.394;9.756;2022-08-03T07:47:24;1.20;;;1.10;;
3207;SDS011;1616;52.394;9.756;2022-08-03T07:49:52;2.63;;;1.10;;
3207;SDS011;1616;52.394;9.756;2022-08-03T07:52:18;1.38;;;1.27;;
3207;SDS011;1616;52.394;9.756;2022-08-03T07:55:03;1.25;;;1.15;;
3207;SDS011;1616;52.394;9.756;2022-08-03T07:57:30;1.27;;;1.00;;
3207;SDS011;1616;52.394;9.756;2022-08-03T07:59:56;1.20;;;1.10;;
3207;SDS011;1616;52.394;9.756;2022-08-03T08:02:22;10.23;;;1.02;;
3207;SDS011;1616;52.394;9.756;2022-08-03T08:04:48;1.10;;;1.00;;
3207;SDS011;1616;52.394;9.756;2022-08-03T08:07:14;2.05;;;1.00;;
3207;SDS011;1616;52.394;9.756;2022-08-03T08:09:39;2.65;;;1.10;;
3207;SDS011;1616;52.394;9.756;2022-08-03T08:12:05;4.05;;;1.00;;
3207;SDS011;1616;52.394;9.756;2022-08-03T08:14:32;1.10;;;0.90;;
3207;SDS011;1616;52.394;9.756;2022-08-03T08:16:59;1.75;;;0.90;;
3207;SDS011;1616;52.394;9.756;2022-08-03T08:19:24;2.83;;;1.00;;
3207;SDS011;1616;52.394;9.756;2022-08-03T08:21:50;4.80;;;1.25;;
3207;SDS011;1616;52.394;9.756;2022-08-03T08:24:15;1.27;;;0.93;;
3207;SDS011;1616;52.394;9.756;2022-08-03T08:26:41;6.93;;;1.00;;
3207;SDS011;1616;52.394;9.756;2022-08-03T08:29:07;1.10;;;0.82;;
3207;SDS011;1616;52.394;9.756;2022-08-03T08:31:33;1.42;;;0.80;;
3207;SDS011;1616;52.394;9.756;2022-08-03T08:33:59;1.20;;;0.90;;
3207;SDS011;1616;52.394;9.756;2022-08-03T08:36:29;1.65;;;0.80;;
3207;SDS011;1616;52.394;9.756;2022-08-03T08:38:59;2.08;;;0.70;;
3207;SDS011;1616;52.394;9.756;2022-08-03T08:41:25;1.25;;;0.80;;
3207;SDS011;1616;52.394;9.756;2022-08-03T08:43:52;2.03;;;0.80;;
3207;SDS011;1616;52.394;9.756;2022-08-03T08:46:18;0.93;;;0.80;;
3207;SDS011;1616;52.394;9.756;2022-08-03T08:48:45;2.95;;;1.02;;
3207;SDS011;1616;52.394;9.756;2022-08-03T08:51:12;2.35;;;1.00;;
3207;SDS011;1616;52.394;9.756;2022-08-03T08:53:40;3.10;;;0.98;;
3207;SDS011;1616;52.394;9.756;2022-08-03T08:56:09;2.15;;;1.00;;
3207;SDS011;1616;52.394;9.756;2022-08-03T08:58:51;2.25;;;0.80;;
3207;SDS011;1616;52.394;9.756;2022-08-03T09:01:22;0.90;;;0.70;;
3207;SDS011;1616;52.394;9.756;2022-08-03T09:03:48;1.77;;;0.90;;
3207;SDS011;1616;52.394;9.756;2022-08-03T09:06:14;1.00;;;0.80;;
3207;SDS011;1616;52.394;9.756;2022-08-03T09:08:41;1.02;;;0.80;;
3207;SDS011;1616;52.394;9.756;2022-08-03T09:11:07;1.58;;;0.60;;
3207;SDS011;1616;52.394;9.756;2022-08-03T09:13:33;2.00;;;0.80;;
3207;SDS011;1616;52.394;9.756;2022-08-03T09:16:19;1.42;;;0.98;;
3207;SDS011;1616;52.394;9.756;2022-08-03T09:18:47;1.25;;;0.80;;
3207;SDS011;1616;52.394;9.756;2022-08-03T09:21:16;1.17;;;0.80;;
3207;SDS011;1616;52.394;9.756;2022-08-03T09:23:50;1.35;;;0.98;;
3207;SDS011;1616;52.394;9.756;2022-08-03T09:26:27;3.28;;;0.80;;
3207;SDS011;1616;52.394;9.756;2022-08-03T09:28:55;2.20;;;0.80;;
3207;SDS011;1616;52.394;9.756;2022-08-03T09:31:29;0.80;;;0.68;;
3207;SDS011;1616;52.394;9.756;2022-08-03T09:34:03;1.50;;;0.80;;
3207;SDS011;1616;52.394;9.756;2022-08-03T09:36:41;2.78;;;0.73;;
3207;SDS011;1616;52.394;9.756;2022-08-03T09:39:12;2.85;;;0.80;;
3207;SDS011;1616;52.394;9.756;2022-08-03T09:41:43;1.45;;;0.90;;
3207;SDS011;1616;52.394;9.756;2022-08-03T09:44:10;3.50;;;0.70;;
3207;SDS011;1616;52.394;9.756;2022-08-03T09:46:55;2.55;;;0.77;;
3207;SDS011;1616;52.394;9.756;2022-08-03T09:49:21;1.02;;;0.70;;
3207;SDS011;1616;52.394;9.756;2022-08-03T09:51:47;2.42;;;0.80;;
3207;SDS011;1616;52.394;9.756;2022-08-03T09:54:24;1.20;;;0.90;;
3207;SDS011;1616;52.394;9.756;2022-08-03T09:56:54;2.22;;;0.90;;
3207;SDS011;1616;52.394;9.756;2022-08-03T09:59:24;2.50;;;0.82;;
3207;SDS011;1616;52.394;9.756;2022-08-03T10:01:54;1.48;;;0.70;;
3207;SDS011;1616;52.394;9.756;2022-08-03T10:04:21;1.60;;;0.82;;
3207;SDS011;1616;52.394;9.756;2022-08-03T10:07:04;2.58;;;0.90;;
3207;SDS011;1616;52.394;9.756;2022-08-03T10:09:30;1.00;;;0.70;;
3207;SDS011;1616;52.394;9.756;2022-08-03T10:11:56;1.90;;;0.80;;
3207;SDS011;1616;52.394;9.756;2022-08-03T10:14:23;1.25;;;0.90;;
3207;SDS011;1616;52.394;9.756;2022-08-03T10:16:54;1.27;;;0.70;;
3207;SDS011;1616;52.394;9.756;2022-08-03T10:19:19;3.15;;;0.90;;
3207;SDS011;1616;52.394;9.756;2022-08-03T10:21:47;1.00;;;0.80;;
3207;SDS011;1616;52.394;9.756;2022-08-03T10:24:16;2.70;;;0.75;;
3207;SDS011;1616;52.394;9.756;2022-08-03T10:26:48;0.90;;;0.70;;
3207;SDS011;1616;52.394;9.756;2022-08-03T10:29:20;0.90;;;0.70;;
3207;SDS011;1616;52.394;9.756;2022-08-03T10:31:49;1.00;;;0.80;;
3207;SDS011;1616;52.394;9.756;2022-08-03T10:34:24;1.00;;;0.80;;
3207;SDS011;1616;52.394;9.756;2022-08-03T10:36:52;1.70;;;0.80;;
3207;SDS011;1616;52.394;9.756;2022-08-03T10:39:23;1.10;;;0.80;;
3207;SDS011;1616;52.394;9.756;2022-08-03T10:41:53;2.63;;;0.88;;
3207;SDS011;1616;52.394;9.756;2022-08-03T10:44:22;0.80;;;0.60;;
3207;SDS011;1616;52.394;9.756;2022-08-03T10:46:50;6.38;;;0.90;;
3207;SDS011;1616;52.394;9.756;2022-08-03T10:49:17;7.90;;;0.98;;
3207;SDS011;1616;52.394;9.756;2022-08-03T10:51:44;1.10;;;0.80;;
3207;SDS011;1616;52.394;9.756;2022-08-03T10:57:44;1.10;;;0.70;;
3207;SDS011;1616;52.394;9.756;2022-08-03T11:00:21;1.58;;;0.70;;
3207;SDS011;1616;52.394;9.756;2022-08-03T11:03:04;1.63;;;0.90;;
3207;SDS011;1616;52.394;9.756;2022-08-03T11:05:41;3.80;;;1.10;;
3207;SDS011;1616;52.394;9.756;2022-08-03T11:08:22;4.07;;;0.90;;
3207;SDS011;1616;52.394;9.756;2022-08-03T11:10:50;3.33;;;0.80;;
3207;SDS011;1616;52.394;9.756;2022-08-03T11:13:19;4.22;;;1.00;;
3207;SDS011;1616;52.394;9.756;2022-08-03T11:15:48;1.05;;;0.77;;
3207;SDS011;1616;52.394;9.756;2022-08-03T11:18:15;0.90;;;0.77;;
3207;SDS011;1616;52.394;9.756;2022-08-03T11:20:45;1.40;;;0.85;;
3207;SDS011;1616;52.394;9.756;2022-08-03T11:23:18;1.38;;;0.80;;
3207;SDS011;1616;52.394;9.756;2022-08-03T11:26:16;1.00;;;0.80;;
3207;SDS011;1616;52.394;9.756;2022-08-03T11:28:44;1.35;;;0.85;;
3207;SDS011;1616;52.394;9.756;2022-08-03T11:34:05;1.15;;;0.90;;
3207;SDS011;1616;52.394;9.756;2022-08-03T11:39:41;1.20;;;0.90;;
3207;SDS011;1616;52.394;9.756;2022-08-03T11:44:51;2.30;;;0.98;;
3207;SDS011;1616;52.394;9.756;2022-08-03T11:47:23;3.20;;;0.80;;
3207;SDS011;1616;52.394;9.756;2022-08-03T11:49:53;1.00;;;0.88;;
3207;SDS011;1616;52.394;9.756;2022-08-03T11:52:21;1.20;;;0.90;;
3207;SDS011;1616;52.394;9.756;2022-08-03T11:54:51;2.30;;;0.90;;
3207;SDS011;1616;52.394;9.756;2022-08-03T11:57:30;0.93;;;0.70;;
3207;SDS011;1616;52.394;9.756;2022-08-03T11:59:57;1.02;;;0.70;;
3207;SDS011;1616;52.394;9.756;2022-08-03T12:02:23;1.35;;;0.90;;
3207;SDS011;1616;52.394;9.756;2022-08-03T12:07:16;1.80;;;0.73;;
3207;SDS011;1616;52.394;9.756;2022-08-03T12:09:43;0.90;;;0.80;;
3207;SDS011;1616;52.394;9.756;2022-08-03T12:12:25;1.25;;;0.70;;
3207;SDS011;1616;52.394;9.756;2022-08-03T12:14:51;1.30;;;0.70;;
3207;SDS011;1616;52.394;9.756;2022-08-03T12:17:17;1.50;;;0.80;;
3207;SDS011;1616;52.394;9.756;2022-08-03T12:19:43;1.00;;;0.70;;
3207;SDS011;1616;52.394;9.756;2022-08-03T12:22:09;4.32;;;0.80;;
3207;SDS011;1616;52.394;9.756;2022-08-03T12:24:41;2.22;;;0.73;;
3207;SDS011;1616;52.394;9.756;2022-08-03T12:27:07;1.02;;;0.80;;
3207;SDS011;1616;52.394;9.756;2022-08-03T12:29:33;0.90;;;0.70;;
3207;SDS011;1616;52.394;9.756;2022-08-03T12:31:59;2.42;;;0.80;;
3207;SDS011;1616;52.394;9.756;2022-08-03T12:34:43;6.03;;;0.80;;
3207;SDS011;1616;52.394;9.756;2022-08-03T12:37:10;1.20;;;0.75;;
3207;SDS011;1616;52.394;9.756;2022-08-03T12:39:36;1.38;;;0.60;;
3207;SDS011;1616;52.394;9.756;2022-08-03T12:42:01;1.02;;;0.80;;
3207;SDS011;1616;52.394;9.756;2022-08-03T12:44:30;1.13;;;0.80;;
3207;SDS011;1616;52.394;9.756;2022-08-03T12:46:58;1.30;;;0.95;;
3207;SDS011;1616;52.394;9.756;2022-08-03T12:49:25;0.95;;;0.60;;
3207;SDS011;1616;52.394;9.756;2022-08-03T12:54:18;1.10;;;1.00;;
3207;SDS011;1616;52.394;9.756;2022-08-03T13:01:58;1.20;;;1.00;;
3207;SDS011;1616;52.394;9.756;2022-08-03T13:04:25;3.88;;;1.00;;
3207;SDS011;1616;52.394;9.756;2022-08-03T13:06:56;2.03;;;0.85;;
3207;SDS011;1616;52.394;9.756;2022-08-03T13:09:26;2.53;;;0.90;;
3207;SDS011;1616;52.394;9.756;2022-08-03T13:12:05;2.83;;;0.90;;
3207;SDS011;1616;52.394;9.756;2022-08-03T13:14:36;2.80;;;0.90;;
3207;SDS011;1616;52.394;9.756;2022-08-03T13:17:02;2.03;;;0.90;;
3207;SDS011;1616;52.394;9.756;2022-08-03T13:19:28;1.20;;;0.80;;
3207;SDS011;1616;52.394;9.756;2022-08-03T13:21:56;2.65;;;1.10;;
3207;SDS011;1616;52.394;9.756;2022-08-03T13:24:21;3.05;;;0.90;;
3207;SDS011;1616;52.394;9.756;2022-08-03T13:26:47;1.95;;;0.95;;
3207;SDS011;1616;52.394;9.756;2022-08-03T13:29:13;2.17;;;1.00;;
3207;SDS011;1616;52.394;9.756;2022-08-03T13:31:39;1.33;;;0.90;;
3207;SDS011;1616;52.394;9.756;2022-08-03T13:34:04;5.95;;;1.00;;
3207;SDS011;1616;52.394;9.756;2022-08-03T13:36:30;2.85;;;1.20;;
3207;SDS011;1616;52.394;9.756;2022-08-03T13:38:55;6.22;;;1.10;;
3207;SDS011;1616;52.394;9.756;2022-08-03T13:41:21;1.17;;;1.00;;
3207;SDS011;1616;52.394;9.756;2022-08-03T13:43:47;1.00;;;0.90;;
3207;SDS011;1616;52.394;9.756;2022-08-03T13:46:12;2.45;;;0.80;;
3207;SDS011;1616;52.394;9.756;2022-08-03T13:48:38;1.10;;;0.77;;
3207;SDS011;1616;52.394;9.756;2022-08-03T13:51:05;1.00;;;0.77;;
3207;SDS011;1616;52.394;9.756;2022-08-03T13:53:31;1.92;;;0.70;;
3207;SDS011;1616;52.394;9.756;2022-08-03T13:55:57;1.17;;;0.68;;
3207;SDS011;1616;52.394;9.756;2022-08-03T13:58:23;1.00;;;0.70;;
3207;SDS011;1616;52.394;9.756;2022-08-03T14:00:48;2.50;;;0.80;;
3207;SDS011;1616;52.394;9.756;2022-08-03T14:03:14;1.10;;;0.70;;
3207;SDS011;1616;52.394;9.756;2022-08-03T14:05:40;2.35;;;0.93;;
3207;SDS011;1616;52.394;9.756;2022-08-03T14:08:07;1.95;;;0.95;;
3207;SDS011;1616;52.394;9.756;2022-08-03T14:10:36;2.28;;;0.90;;
3207;SDS011;1616;52.394;9.756;2022-08-03T14:13:03;3.28;;;0.80;;
3207;SDS011;1616;52.394;9.756;2022-08-03T14:15:30;1.52;;;1.00;;
3207;SDS011;1616;52.394;9.756;2022-08-03T14:17:56;1.23;;;0.90;;
3207;SDS011;1616;52.394;9.756;2022-08-03T14:20:21;1.10;;;0.80;;
3207;SDS011;1616;52.394;9.756;2022-08-03T14:22:47;2.35;;;0.80;;
3207;SDS011;1616;52.394;9.756;2022-08-03T14:25:13;1.45;;;0.90;;
3207;SDS011;1616;52.394;9.756;2022-08-03T14:27:39;3.47;;;0.82;;
3207;SDS011;1616;52.394;9.756;2022-08-03T14:30:05;2.15;;;0.98;;
3207;SDS011;1616;52.394;9.756;2022-08-03T14:32:31;1.50;;;0.95;;
3207;SDS011;1616;52.394;9.756;2022-08-03T14:34:57;1.00;;;0.90;;
3207;SDS011;1616;52.394;9.756;2022-08-03T14:37:22;0.90;;;0.80;;
3207;SDS011;1616;52.394;9.756;2022-08-03T14:39:48;1.40;;;0.90;;
3207;SDS011;1616;52.394;9.756;2022-08-03T14:42:13;2.85;;;0.80;;
3207;SDS011;1616;52.394;9.756;2022-08-03T14:44:40;1.70;;;1.20;;
3207;SDS011;1616;52.394;9.756;2022-08-03T14:47:06;1.10;;;0.80;;
3207;SDS011;1616;52.394;9.756;2022-08-03T14:49:32;1.15;;;0.70;;
3207;SDS011;1616;52.394;9.756;2022-08-03T14:51:58;1.45;;;1.15;;
3207;SDS011;1616;52.394;9.756;2022-08-03T14:54:23;1.55;;;0.80;;
3207;SDS011;1616;52.394;9.756;2022-08-03T14:56:49;2.17;;;1.10;;
3207;SDS011;1616;52.394;9.756;2022-08-03T14:59:15;1.00;;;0.85;;
3207;SDS011;1616;52.394;9.756;2022-08-03T15:01:41;6.90;;;1.10;;
3207;SDS011;1616;52.394;9.756;2022-08-03T15:04:06;1.10;;;0.80;;
3207;SDS011;1616;52.394;9.756;2022-08-03T15:06:32;1.10;;;0.93;;
3207;SDS011;1616;52.394;9.756;2022-08-03T15:08:58;1.40;;;1.00;;
3207;SDS011;1616;52.394;9.756;2022-08-03T15:11:24;1.65;;;1.00;;
3207;SDS011;1616;52.394;9.756;2022-08-03T15:13:49;1.50;;;0.90;;
3207;SDS011;1616;52.394;9.756;2022-08-03T15:16:15;1.93;;;1.07;;
3207;SDS011;1616;52.394;9.756;2022-08-03T15:18:41;2.55;;;0.95;;
3207;SDS011;1616;52.394;9.756;2022-08-03T15:21:06;1.10;;;1.00;;
3207;SDS011;1616;52.394;9.756;2022-08-03T15:23:32;1.53;;;1.40;;
3207;SDS011;1616;52.394;9.756;2022-08-03T15:25:57;1.30;;;1.10;;
3207;SDS011;1616;52.394;9.756;2022-08-03T15:28:23;1.50;;;0.90;;
3207;SDS011;1616;52.394;9.756;2022-08-03T15:30:50;3.08;;;0.90;;
3207;SDS011;1616;52.394;9.756;2022-08-03T15:33:17;5.67;;;1.10;;
3207;SDS011;1616;52.394;9.756;2022-08-03T15:35:42;2.70;;;1.00;;
3207;SDS011;1616;52.394;9.756;2022-08-03T15:38:10;3.88;;;1.10;;
3207;SDS011;1616;52.394;9.756;2022-08-03T15:40:36;1.38;;;1.13;;
3207;SDS011;1616;52.394;9.756;2022-08-03T15:43:02;5.57;;;1.30;;
3207;SDS011;1616;52.394;9.756;2022-08-03T15:45:27;1.67;;;1.00;;
3207;SDS011;1616;52.394;9.756;2022-08-03T15:47:53;3.90;;;0.73;;
3207;SDS011;1616;52.394;9.756;2022-08-03T15:50:19;2.03;;;0.85;;
3207;SDS011;1616;52.394;9.756;2022-08-03T15:52:45;2.90;;;0.93;;